createdAt,value
2018-03-27T00:02:15.319Z,101551.53
2018-03-27T00:04:42.925Z,101551.97
2018-03-27T00:07:10.560Z,101549.84
2018-03-27T00:09:38.173Z,101552.78
2018-03-27T00:12:05.804Z,101550.12
2018-03-27T00:14:33.416Z,101547.42
2018-03-27T00:17:01.147Z,101546.36
2018-03-27T00:19:28.760Z,101547.52
2018-03-27T00:21:56.396Z,101548.55
2018-03-27T00:24:24.028Z,101550.17
2018-03-27T00:27:00.316Z,101550.52
2018-03-27T00:29:39.780Z,101553.86
2018-03-27T00:32:19.281Z,101553.33
2018-03-27T00:34:58.748Z,101550.26
2018-03-27T00:37:38.261Z,101553.60
2018-03-27T00:40:17.798Z,101553.54
2018-03-27T00:42:50.889Z,101550.88
2018-03-27T00:45:18.552Z,101554.25
2018-03-27T00:47:46.189Z,101553.72
2018-03-27T00:50:13.809Z,101546.90
2018-03-27T00:52:41.436Z,101554.19
2018-03-27T00:55:09.072Z,101550.84
2018-03-27T00:57:36.683Z,101548.28
2018-03-27T01:00:04.317Z,101552.53
2018-03-27T01:02:31.928Z,101553.31
2018-03-27T01:05:05.004Z,101551.56
2018-03-27T01:07:32.631Z,101548.89
2018-03-27T01:10:00.266Z,101543.70
2018-03-27T01:12:27.877Z,101546.61
2018-03-27T01:14:55.508Z,101551.70
2018-03-27T01:17:23.187Z,101549.17
2018-03-27T01:19:50.820Z,101548.42
2018-03-27T01:22:18.510Z,101553.25
2018-03-27T01:24:46.144Z,101548.99
2018-03-27T01:27:13.761Z,101546.46
2018-03-27T01:29:41.392Z,101549.91
2018-03-27T01:32:08.995Z,101545.30
2018-03-27T01:34:36.624Z,101542.77
2018-03-27T01:37:04.279Z,101541.14
2018-03-27T01:39:31.915Z,101539.99
2018-03-27T01:41:59.529Z,101540.43
2018-03-27T01:44:27.272Z,101536.61
2018-03-27T01:46:54.879Z,101543.44
2018-03-27T01:49:22.515Z,101545.47
2018-03-27T01:51:50.121Z,101534.60
2018-03-27T01:54:17.760Z,101534.06
2018-03-27T01:56:45.484Z,101530.47
2018-03-27T01:59:13.112Z,101527.20
2018-03-27T02:01:40.803Z,101526.09
2018-03-27T02:04:08.436Z,101523.71
2018-03-27T02:06:36.049Z,101523.08
2018-03-27T02:09:03.796Z,101522.89
2018-03-27T02:11:37.032Z,101521.97
2018-03-27T02:14:10.235Z,101528.83
2018-03-27T02:16:43.528Z,101529.70
2018-03-27T02:19:16.778Z,101531.09
2018-03-27T02:21:43.825Z,101528.14
2018-03-27T02:24:16.032Z,101526.83
2018-03-27T02:26:43.644Z,101520.52
2018-03-27T02:29:11.275Z,101523.02
2018-03-27T02:31:38.891Z,101520.08
2018-03-27T02:34:06.639Z,101528.21
2018-03-27T02:36:34.253Z,101523.98
2018-03-27T02:39:01.970Z,101523.27
2018-03-27T02:41:29.581Z,101521.66
2018-03-27T02:43:57.193Z,101520.88
2018-03-27T02:46:24.847Z,101525.76
2018-03-27T02:48:52.457Z,101527.98
2018-03-27T02:51:20.092Z,101529.05
2018-03-27T02:53:47.702Z,101529.59
2018-03-27T02:56:15.406Z,101532.52
2018-03-27T03:01:09.945Z,101530.74
2018-03-27T03:03:37.561Z,101529.89
2018-03-27T03:06:05.197Z,101530.80
2018-03-27T03:08:32.900Z,101527.83
2018-03-27T03:11:00.527Z,101525.20
2018-03-27T03:13:28.140Z,101522.00
2018-03-27T03:15:55.774Z,101521.53
2018-03-27T03:18:23.384Z,101518.44
2018-03-27T03:20:51.020Z,101517.09
2018-03-27T03:23:18.637Z,101519.15
2018-03-27T03:25:46.276Z,101523.06
2018-03-27T03:28:13.938Z,101522.16
2018-03-27T03:30:41.552Z,101522.22
2018-03-27T03:33:09.215Z,101523.50
2018-03-27T03:35:36.856Z,101530.35
2018-03-27T03:38:04.477Z,101532.55
2018-03-27T03:40:32.204Z,101538.18
2018-03-27T03:42:59.812Z,101540.88
2018-03-27T03:45:27.524Z,101541.78
2018-03-27T03:47:55.161Z,101535.34
2018-03-27T03:50:22.793Z,101540.03
2018-03-27T03:52:50.414Z,101538.25
2018-03-27T03:55:18.048Z,101545.57
2018-03-27T03:57:45.664Z,101549.55
2018-03-27T04:00:13.300Z,101544.92
2018-03-27T04:02:40.913Z,101539.04
2018-03-27T04:05:08.545Z,101540.86
2018-03-27T04:07:36.160Z,101541.77
2018-03-27T04:10:03.843Z,101532.81
2018-03-27T04:12:31.528Z,101536.98
2018-03-27T04:14:59.280Z,101535.98
2018-03-27T04:17:26.884Z,101529.16
2018-03-27T04:19:54.651Z,101525.72
2018-03-27T04:22:22.232Z,101523.03
2018-03-27T04:24:49.933Z,101528.50
2018-03-27T04:27:17.575Z,101524.19
2018-03-27T04:29:45.184Z,101525.03
2018-03-27T04:32:12.819Z,101532.70
2018-03-27T04:34:40.428Z,101538.73
2018-03-27T04:37:08.064Z,101535.83
2018-03-27T04:39:35.668Z,101535.89
2018-03-27T04:42:03.301Z,101535.55
2018-03-27T04:44:30.908Z,101534.33
2018-03-27T04:46:58.540Z,101537.02
2018-03-27T04:49:26.144Z,101537.59
2018-03-27T04:51:53.776Z,101535.18
2018-03-27T04:54:21.467Z,101534.09
2018-03-27T04:56:49.095Z,101536.31
2018-03-27T04:59:16.700Z,101540.28
2018-03-27T05:01:44.332Z,101530.14
2018-03-27T05:04:12.016Z,101527.61
2018-03-27T05:06:39.677Z,101527.92
2018-03-27T05:09:07.341Z,101531.89
2018-03-27T05:11:34.976Z,101533.20
2018-03-27T05:14:02.593Z,101528.58
2018-03-27T05:16:30.331Z,101530.33
2018-03-27T05:18:57.992Z,101531.20
2018-03-27T05:21:25.654Z,101533.36
2018-03-27T05:23:53.320Z,101533.77
2018-03-27T05:26:20.990Z,101533.30
2018-03-27T05:28:48.604Z,101538.03
2018-03-27T05:31:16.239Z,101540.56
2018-03-27T05:33:43.852Z,101543.92
2018-03-27T05:36:11.493Z,101544.73
2018-03-27T05:38:39.215Z,101543.89
2018-03-27T05:41:06.956Z,101545.20
2018-03-27T05:43:35.144Z,101542.32
2018-03-27T05:46:02.896Z,101542.82
2018-03-27T05:48:30.560Z,101541.63
2018-03-27T05:50:58.198Z,101550.24
2018-03-27T05:53:25.892Z,101547.67
2018-03-27T05:55:53.608Z,101546.83
2018-03-27T05:58:21.224Z,101552.94
2018-03-27T06:00:48.852Z,101553.84
2018-03-27T06:03:16.468Z,101552.09
2018-03-27T06:05:44.084Z,101557.23
2018-03-27T06:08:11.837Z,101557.64
2018-03-27T06:10:39.504Z,101563.21
2018-03-27T06:13:07.187Z,101560.67
2018-03-27T06:15:34.804Z,101560.77
2018-03-27T06:18:02.440Z,101553.44
2018-03-27T06:20:30.056Z,101556.97
2018-03-27T06:22:57.689Z,101560.08
2018-03-27T06:25:25.404Z,101554.55
2018-03-27T06:27:53.164Z,101551.67
2018-03-27T06:30:20.771Z,101553.46
2018-03-27T06:32:48.496Z,101554.34
2018-03-27T06:35:16.099Z,101556.16
2018-03-27T06:37:43.736Z,101553.20
2018-03-27T06:40:12.906Z,101555.80
2018-03-27T06:42:40.581Z,101563.58
2018-03-27T06:45:08.205Z,101570.91
2018-03-27T06:47:35.839Z,101570.91
2018-03-27T06:50:03.481Z,101564.98
2018-03-27T06:52:31.112Z,101568.11
2018-03-27T06:54:58.796Z,101565.00
2018-03-27T06:57:26.457Z,101557.25
2018-03-27T06:59:54.074Z,101559.77
2018-03-27T07:02:21.779Z,101561.01
2018-03-27T07:04:49.439Z,101560.95
2018-03-27T07:07:17.093Z,101556.61
2018-03-27T07:09:44.764Z,101558.16
2018-03-27T07:12:12.400Z,101559.62
2018-03-27T07:14:40.012Z,101560.58
2018-03-27T07:17:07.641Z,101558.54
2018-03-27T07:19:35.339Z,101556.20
2018-03-27T07:22:03.088Z,101556.48
2018-03-27T07:24:30.746Z,101556.38
2018-03-27T07:26:58.444Z,101555.80
2018-03-27T07:29:26.068Z,101551.33
2018-03-27T07:31:53.700Z,101553.86
2018-03-27T07:34:21.492Z,101552.91
2018-03-27T07:36:49.157Z,101552.40
2018-03-27T07:39:16.829Z,101555.84
2018-03-27T07:41:44.464Z,101557.48
2018-03-27T07:44:12.072Z,101557.87
2018-03-27T07:46:39.684Z,101550.55
2018-03-27T07:49:07.316Z,101554.77
2018-03-27T07:51:35.052Z,101555.64
2018-03-27T07:54:02.706Z,101550.97
2018-03-27T07:56:30.311Z,101552.16
2018-03-27T07:58:57.944Z,101549.46
2018-03-27T08:01:25.576Z,101546.24
2018-03-27T08:03:53.211Z,101543.54
2018-03-27T08:06:20.909Z,101543.48
2018-03-27T08:08:48.544Z,101547.37
2018-03-27T08:11:16.292Z,101544.42
2018-03-27T08:13:44.061Z,101546.68
2018-03-27T08:16:11.665Z,101547.58
2018-03-27T08:18:39.291Z,101544.64
2018-03-27T08:21:06.891Z,101545.56
2018-03-27T08:23:34.543Z,101539.09
2018-03-27T08:26:02.205Z,101540.27
2018-03-27T08:28:29.840Z,101541.32
2018-03-27T08:30:57.539Z,101537.75
2018-03-27T08:33:25.205Z,101534.25
2018-03-27T08:35:52.815Z,101540.27
2018-03-27T08:38:20.450Z,101538.75
2018-03-27T08:40:48.056Z,101538.03
2018-03-27T08:43:15.754Z,101539.14
2018-03-27T08:45:43.406Z,101539.78
2018-03-27T08:48:11.081Z,101536.81
2018-03-27T08:50:38.688Z,101527.76
2018-03-27T08:53:06.324Z,101525.15
2018-03-27T08:55:33.931Z,101526.28
2018-03-27T08:58:01.568Z,101529.14
2018-03-27T09:00:29.185Z,101526.00
2018-03-27T09:02:56.821Z,101522.46
2018-03-27T09:05:24.530Z,101520.02
2018-03-27T09:07:52.167Z,101514.15
2018-03-27T09:10:19.779Z,101515.65
2018-03-27T09:12:47.412Z,101515.33
2018-03-27T09:15:15.071Z,101509.98
2018-03-27T09:17:42.824Z,101513.30
2018-03-27T09:20:10.440Z,101512.90
2018-03-27T09:22:38.128Z,101507.25
2018-03-27T09:25:05.820Z,101504.93
2018-03-27T09:27:33.441Z,101505.82
2018-03-27T09:30:01.100Z,101503.59
2018-03-27T09:32:28.800Z,101505.18
2018-03-27T09:34:56.566Z,101498.23
2018-03-27T09:37:24.196Z,101505.11
2018-03-27T09:39:51.892Z,101503.38
2018-03-27T09:42:19.553Z,101504.61
2018-03-27T09:44:47.192Z,101512.30
2018-03-27T09:47:15.583Z,101503.95
2018-03-27T09:49:43.868Z,101508.84
2018-03-27T09:52:11.484Z,101505.67
2018-03-27T09:54:39.196Z,101510.63
2018-03-27T09:57:06.816Z,101509.49
2018-03-27T09:59:34.453Z,101507.09
2018-03-27T10:02:02.063Z,101509.84
2018-03-27T10:04:29.784Z,101505.80
2018-03-27T10:06:57.392Z,101507.31
2018-03-27T10:09:25.065Z,101504.64
2018-03-27T10:11:52.676Z,101508.23
2018-03-27T10:14:20.313Z,101504.16
2018-03-27T10:16:47.920Z,101504.13
2018-03-27T10:19:15.557Z,101502.30
2018-03-27T10:21:43.173Z,101497.52
2018-03-27T10:24:10.808Z,101499.15
2018-03-27T10:26:38.421Z,101492.56
2018-03-27T10:29:06.125Z,101489.80
2018-03-27T10:31:33.745Z,101493.03
2018-03-27T10:34:01.385Z,101484.16
2018-03-27T10:36:29.003Z,101486.58
2018-03-27T10:38:56.639Z,101483.30
2018-03-27T10:41:24.247Z,101480.83
2018-03-27T10:43:51.888Z,101478.84
2018-03-27T10:46:19.499Z,101478.05
2018-03-27T10:48:47.169Z,101483.36
2018-03-27T10:51:14.828Z,101480.78
2018-03-27T10:53:42.464Z,101479.11
2018-03-27T10:56:10.077Z,101481.00
2018-03-27T10:58:37.879Z,101470.70
2018-03-27T11:01:05.497Z,101467.30
2018-03-27T11:03:33.136Z,101475.69
2018-03-27T11:06:00.752Z,101475.31
2018-03-27T11:08:28.468Z,101471.41
2018-03-27T11:10:56.128Z,101470.48
2018-03-27T11:13:23.787Z,101469.94
2018-03-27T11:15:51.455Z,101466.86
2018-03-27T11:18:19.124Z,101464.30
2018-03-27T11:20:46.765Z,101459.92
2018-03-27T11:23:14.374Z,101458.18
2018-03-27T11:25:42.015Z,101459.38
2018-03-27T11:28:09.624Z,101459.38
2018-03-27T11:30:37.266Z,101459.31
2018-03-27T11:33:04.881Z,101464.08
2018-03-27T11:35:32.547Z,101456.66
2018-03-27T11:38:00.804Z,101447.13
2018-03-27T11:40:28.441Z,101448.44
2018-03-27T11:42:56.153Z,101446.76
2018-03-27T11:45:23.816Z,101448.92
2018-03-27T11:47:51.433Z,101439.34
2018-03-27T11:50:19.145Z,101439.27
2018-03-27T11:52:46.760Z,101437.05
2018-03-27T11:55:14.404Z,101437.92
2018-03-27T11:57:42.021Z,101432.26
2018-03-27T12:00:10.160Z,101428.84
2018-03-27T12:02:37.868Z,101428.09
2018-03-27T12:05:05.504Z,101425.17
2018-03-27T12:07:33.196Z,101423.95
2018-03-27T12:10:00.844Z,101422.77
2018-03-27T12:12:28.523Z,101420.21
2018-03-27T12:14:56.180Z,101412.48
2018-03-27T12:17:23.939Z,101411.72
2018-03-27T12:19:51.576Z,101410.42
2018-03-27T12:22:19.213Z,101411.18
2018-03-27T12:24:46.847Z,101412.86
2018-03-27T12:27:14.456Z,101411.18
2018-03-27T12:29:42.149Z,101400.41
2018-03-27T12:32:09.756Z,101404.37
2018-03-27T12:34:37.394Z,101401.39
2018-03-27T12:37:05.005Z,101386.36
2018-03-27T12:39:32.631Z,101386.66
2018-03-27T12:42:00.243Z,101383.41
2018-03-27T12:44:27.856Z,101376.30
2018-03-27T12:46:55.492Z,101376.52
2018-03-27T12:49:23.113Z,101373.53
2018-03-27T12:51:50.768Z,101369.20
2018-03-27T12:54:18.472Z,101370.41
2018-03-27T12:56:46.106Z,101369.35
2018-03-27T12:59:13.731Z,101368.72
2018-03-27T13:01:41.372Z,101365.87
2018-03-27T13:04:09.017Z,101364.69
2018-03-27T13:06:36.648Z,101366.97
2018-03-27T13:09:04.348Z,101370.53
2018-03-27T13:11:31.975Z,101366.23
2018-03-27T13:13:59.585Z,101357.61
2018-03-27T13:16:27.229Z,101361.58
2018-03-27T13:18:54.956Z,101361.20
2018-03-27T13:21:22.748Z,101353.90
2018-03-27T13:23:50.423Z,101353.84
2018-03-27T13:26:18.290Z,101359.50
2018-03-27T13:28:45.960Z,101352.97
2018-03-27T13:31:13.632Z,101359.48
2018-03-27T13:33:41.280Z,101358.63
2018-03-27T13:36:08.944Z,101362.91
2018-03-27T13:38:36.614Z,101363.75
2018-03-27T13:41:04.580Z,101369.70
2018-03-27T13:43:32.335Z,101362.19
2018-03-27T13:45:59.968Z,101365.58
2018-03-27T13:48:27.568Z,101365.73
2018-03-27T13:50:55.505Z,101353.54
2018-03-27T13:53:23.136Z,101351.91
2018-03-27T13:55:50.755Z,101353.05
2018-03-27T13:58:18.521Z,101344.75
2018-03-27T14:00:46.148Z,101343.36
2018-03-27T14:03:13.847Z,101332.17
2018-03-27T14:05:41.613Z,101337.52
2018-03-27T14:08:09.223Z,101325.06
2018-03-27T14:10:36.844Z,101326.88
2018-03-27T14:13:04.500Z,101323.04
2018-03-27T14:15:32.164Z,101323.45
2018-03-27T14:17:59.985Z,101324.66
2018-03-27T14:20:27.612Z,101320.23
2018-03-27T14:22:55.256Z,101321.80
2018-03-27T14:25:22.900Z,101316.00
2018-03-27T14:27:50.542Z,101318.82
2018-03-27T14:30:18.149Z,101319.03
2018-03-27T14:32:46.106Z,101314.87
2018-03-27T14:35:13.828Z,101316.28
2018-03-27T14:37:41.534Z,101308.29
2018-03-27T14:40:09.176Z,101307.18
2018-03-27T14:42:36.808Z,101303.44
2018-03-27T14:45:04.425Z,101299.61
2018-03-27T14:47:32.056Z,101301.83
2018-03-27T14:49:59.749Z,101302.43
2018-03-27T14:52:27.378Z,101300.70
2018-03-27T14:54:55.076Z,101292.03
2018-03-27T14:57:22.735Z,101295.88
2018-03-27T14:59:50.413Z,101286.80
2018-03-27T15:02:18.058Z,101277.23
2018-03-27T15:04:45.663Z,101281.06
2018-03-27T15:07:13.392Z,101282.68
2018-03-27T15:09:41.016Z,101277.05
2018-03-27T15:12:08.717Z,101283.66
2018-03-27T15:14:36.332Z,101273.27
2018-03-27T15:17:04.046Z,101276.69
2018-03-27T15:19:31.698Z,101273.17
2018-03-27T15:21:59.327Z,101278.19
2018-03-27T15:24:26.941Z,101268.83
2018-03-27T15:26:54.846Z,101271.25
2018-03-27T15:29:22.540Z,101263.13
2018-03-27T15:31:50.276Z,101261.09
2018-03-27T15:34:17.884Z,101255.15
2018-03-27T15:36:45.645Z,101254.02
2018-03-27T15:39:13.252Z,101254.22
2018-03-27T15:41:40.884Z,101252.25
2018-03-27T15:44:08.521Z,101249.83
2018-03-27T15:46:36.175Z,101252.27
2018-03-27T15:49:03.780Z,101252.95
2018-03-27T15:51:31.407Z,101254.86
2018-03-27T15:53:59.020Z,101256.42
2018-03-27T15:56:26.648Z,101247.98
2018-03-27T15:58:54.258Z,101252.15
2018-03-27T16:01:21.891Z,101246.77
2018-03-27T16:03:49.552Z,101245.31
2018-03-27T16:06:17.196Z,101242.97
2018-03-27T16:08:44.828Z,101243.24
2018-03-27T16:11:12.449Z,101234.12
2018-03-27T16:13:40.075Z,101232.40
2018-03-27T16:16:08.048Z,101233.31
2018-03-27T16:18:35.672Z,101236.30
2018-03-27T16:21:03.290Z,101232.91
2018-03-27T16:23:30.929Z,101228.28
2018-03-27T16:25:58.573Z,101227.49
2018-03-27T16:28:26.271Z,101222.81
2018-03-27T16:30:53.877Z,101221.03
2018-03-27T16:33:21.504Z,101223.03
2018-03-27T16:35:49.109Z,101225.41
2018-03-27T16:38:16.809Z,101227.80
2018-03-27T16:40:44.466Z,101226.27
2018-03-27T16:43:12.092Z,101230.00
2018-03-27T16:45:39.798Z,101224.25
2018-03-27T16:48:07.667Z,101220.09
2018-03-27T16:50:36.557Z,101227.70
2018-03-27T16:53:04.188Z,101225.81
2018-03-27T16:55:31.787Z,101228.67
2018-03-27T16:57:59.416Z,101231.47
2018-03-27T17:00:27.027Z,101231.24
2018-03-27T17:02:54.657Z,101230.56
2018-03-27T17:05:22.324Z,101237.63
2018-03-27T17:07:49.988Z,101230.52
2018-03-27T17:10:17.658Z,101228.19
2018-03-27T17:12:45.300Z,101231.48
2018-03-27T17:15:12.976Z,101225.39
2018-03-27T17:17:40.603Z,101231.38
2018-03-27T17:20:08.224Z,101224.78
2018-03-27T17:22:35.869Z,101229.02
2018-03-27T17:25:03.529Z,101219.45
2018-03-27T17:27:31.287Z,101223.73
2018-03-27T17:29:59.564Z,101218.48
2018-03-27T17:32:27.334Z,101223.95
2018-03-27T17:34:54.972Z,101219.91
2018-03-27T17:37:22.665Z,101217.59
2018-03-27T17:39:50.278Z,101221.37
2018-03-27T17:42:18.047Z,101223.44
2018-03-27T17:44:45.648Z,101222.48
2018-03-27T17:47:13.257Z,101225.41
2018-03-27T17:49:40.971Z,101224.89
2018-03-27T17:52:08.693Z,101221.27
2018-03-27T17:54:36.504Z,101221.53
2018-03-27T17:57:04.104Z,101220.88
2018-03-27T17:59:31.733Z,101224.57
2018-03-27T18:01:59.385Z,101226.98
2018-03-27T18:04:27.047Z,101224.70
2018-03-27T18:06:54.656Z,101219.83
2018-03-27T18:09:22.670Z,101222.75
2018-03-27T18:11:50.492Z,101223.06
2018-03-27T18:14:18.123Z,101219.45
2018-03-27T18:16:45.771Z,101221.87
2018-03-27T18:19:13.535Z,101217.02
2018-03-27T18:21:41.145Z,101211.77
2018-03-27T18:24:08.872Z,101213.81
2018-03-27T18:26:36.480Z,101213.77
2018-03-27T18:29:04.112Z,101213.68
2018-03-27T18:31:31.851Z,101211.02
2018-03-27T18:33:59.480Z,101217.38
2018-03-27T18:36:27.179Z,101211.27
2018-03-27T18:38:54.860Z,101209.85
2018-03-27T18:41:22.468Z,101210.55
2018-03-27T18:43:50.116Z,101210.88
2018-03-27T18:46:17.825Z,101212.50
2018-03-27T18:48:45.468Z,101210.23
2018-03-27T18:51:13.152Z,101206.66
2018-03-27T18:53:40.920Z,101210.85
2018-03-27T18:56:08.589Z,101208.60
2018-03-27T18:58:36.404Z,101205.50
2018-03-27T19:01:04.349Z,101204.53
2018-03-27T19:03:32.079Z,101213.11
2018-03-27T19:05:59.687Z,101202.29
2018-03-27T19:08:27.320Z,101200.93
2018-03-27T19:10:54.928Z,101214.16
2018-03-27T19:13:22.561Z,101203.37
2018-03-27T19:15:50.178Z,101208.48
2018-03-27T19:18:17.788Z,101212.31
2018-03-27T19:20:45.516Z,101203.63
2018-03-27T19:23:13.221Z,101209.11
2018-03-27T19:25:40.778Z,101205.23
2018-03-27T19:28:08.383Z,101206.03
2018-03-27T19:30:36.068Z,101200.86
2018-03-27T19:33:03.680Z,101211.97
2018-03-27T19:35:31.316Z,101199.45
2018-03-27T19:37:58.951Z,101195.52
2018-03-27T19:40:26.585Z,101192.48
2018-03-27T19:42:54.204Z,101199.27
2018-03-27T19:45:21.867Z,101193.16
2018-03-27T19:47:49.504Z,101190.91
2018-03-27T19:50:17.137Z,101186.52
2018-03-27T19:52:44.792Z,101188.51
2018-03-27T19:55:12.564Z,101190.44
2018-03-27T19:57:40.175Z,101188.63
2018-03-27T20:00:07.808Z,101184.65
2018-03-27T20:02:35.683Z,101182.41
2018-03-27T20:05:03.532Z,101179.73
2018-03-27T20:07:31.145Z,101186.53
2018-03-27T20:09:58.872Z,101185.66
2018-03-27T20:12:26.545Z,101189.50
2018-03-27T20:14:54.205Z,101186.48
2018-03-27T20:17:21.859Z,101188.97
2018-03-27T20:19:49.536Z,101186.32
2018-03-27T20:22:17.144Z,101185.45
2018-03-27T20:24:44.853Z,101190.09
2018-03-27T20:27:12.459Z,101189.10
2018-03-27T20:29:40.176Z,101188.16
2018-03-27T20:32:07.784Z,101180.36
2018-03-27T20:34:35.504Z,101175.59
2018-03-27T20:37:03.160Z,101180.26
2018-03-27T20:39:30.796Z,101181.50
2018-03-27T20:41:58.414Z,101176.20
2018-03-27T20:44:26.053Z,101175.30
2018-03-27T20:46:53.662Z,101173.52
2018-03-27T20:49:21.288Z,101175.16
2018-03-27T20:51:48.896Z,101174.30
2018-03-27T20:54:16.604Z,101177.66
2018-03-27T20:56:44.208Z,101176.77
2018-03-27T20:59:11.829Z,101177.20
2018-03-27T21:01:39.483Z,101175.41
2018-03-27T21:04:07.148Z,101171.89
2018-03-27T21:06:34.808Z,101170.50
2018-03-27T21:09:02.413Z,101160.59
2018-03-27T21:11:30.044Z,101164.36
2018-03-27T21:13:57.649Z,101162.13
2018-03-27T21:16:25.355Z,101158.61
2018-03-27T21:18:53.020Z,101159.42
2018-03-27T21:21:20.651Z,101154.63
2018-03-27T21:23:48.252Z,101152.39
2018-03-27T21:26:15.876Z,101145.91
2018-03-27T21:28:43.480Z,101143.62
2018-03-27T21:31:11.113Z,101145.67
2018-03-27T21:33:38.893Z,101145.19
2018-03-27T21:36:06.556Z,101142.95
2018-03-27T21:38:34.160Z,101145.00
2018-03-27T21:41:01.800Z,101152.64
2018-03-27T21:43:29.399Z,101143.95
2018-03-27T21:45:57.031Z,101143.83
2018-03-27T21:48:24.668Z,101140.74
2018-03-27T21:50:52.292Z,101138.13
2018-03-27T21:53:19.905Z,101142.36
2018-03-27T21:55:47.533Z,101141.05
2018-03-27T21:58:15.212Z,101138.87
2018-03-27T22:00:42.849Z,101140.52
2018-03-27T22:03:10.536Z,101134.92
2018-03-27T22:05:38.200Z,101134.43
2018-03-27T22:08:05.804Z,101133.12
2018-03-27T22:10:39.364Z,101136.03
2018-03-27T22:13:07.032Z,101134.64
2018-03-27T22:15:34.687Z,101128.09
2018-03-27T22:18:02.363Z,101130.66
2018-03-27T22:20:30.001Z,101124.56
2018-03-27T22:22:57.694Z,101124.52
2018-03-27T22:25:25.339Z,101121.46
2018-03-27T22:27:52.943Z,101119.64
2018-03-27T22:30:20.669Z,101123.04
2018-03-27T22:32:48.272Z,101118.21
2018-03-27T22:35:15.991Z,101120.70
2018-03-27T22:37:43.591Z,101115.89
2018-03-27T22:40:11.212Z,101113.73
2018-03-27T22:42:38.848Z,101120.14
2018-03-27T22:45:06.456Z,101109.36
2018-03-27T22:47:34.091Z,101107.64
2018-03-27T22:50:01.764Z,101109.36
2018-03-27T22:52:29.428Z,101108.95
2018-03-27T22:54:57.100Z,101101.65
2018-03-27T22:57:24.751Z,101099.05
2018-03-27T22:59:52.413Z,101100.76
2018-03-27T23:02:20.044Z,101099.39
2018-03-27T23:04:47.741Z,101103.27
2018-03-27T23:07:15.414Z,101100.32
2018-03-27T23:09:43.064Z,101096.48
2018-03-27T23:12:10.728Z,101098.63
2018-03-27T23:14:38.393Z,101099.08
2018-03-27T23:17:06.016Z,101094.35
2018-03-27T23:19:33.716Z,101096.47
2018-03-27T23:22:01.382Z,101101.09
2018-03-27T23:24:29.040Z,101104.44
2018-03-27T23:26:56.704Z,101106.05
2018-03-27T23:29:24.312Z,101103.86
2018-03-27T23:31:51.941Z,101103.75
2018-03-27T23:34:19.544Z,101104.55
2018-03-27T23:36:47.168Z,101103.66
2018-03-27T23:39:14.772Z,101110.88
2018-03-27T23:41:42.400Z,101104.34
2018-03-27T23:44:10.010Z,101103.80
2018-03-27T23:46:37.633Z,101101.55
2018-03-27T23:49:05.240Z,101097.98
2018-03-27T23:51:32.920Z,101094.78
2018-03-27T23:54:00.524Z,101094.23
2018-03-27T23:56:28.248Z,101090.63
2018-03-27T23:58:55.895Z,101089.98
